createdAt,value
2022-07-29T00:01:42.291Z,23.36
2022-07-29T00:04:09.801Z,23.34
2022-07-29T00:06:37.728Z,23.36
2022-07-29T00:09:05.578Z,23.35
2022-07-29T00:11:32.568Z,23.36
2022-07-29T00:13:59.806Z,23.39
2022-07-29T00:16:28.892Z,23.42
2022-07-29T00:18:56.289Z,23.49
2022-07-29T00:21:23.283Z,23.53
2022-07-29T00:23:51.083Z,23.52
2022-07-29T00:26:18.257Z,23.54
2022-07-29T00:28:46.066Z,23.61
2022-07-29T00:31:13.856Z,23.64
2022-07-29T00:33:41.161Z,23.67
2022-07-29T00:36:08.179Z,23.69
2022-07-29T00:38:36.298Z,23.72
2022-07-29T00:41:03.267Z,23.72
2022-07-29T00:43:31.586Z,23.71
2022-07-29T00:45:58.777Z,23.69
2022-07-29T00:48:26.021Z,23.65
2022-07-29T00:50:53.266Z,23.65
2022-07-29T00:53:21.655Z,23.66
2022-07-29T00:55:49.067Z,23.69
2022-07-29T00:58:16.518Z,23.69
2022-07-29T01:00:44.945Z,23.69
2022-07-29T01:03:14.418Z,23.67
2022-07-29T01:05:50.260Z,23.64
2022-07-29T01:08:18.946Z,23.59
2022-07-29T01:10:47.910Z,23.53
2022-07-29T01:13:16.812Z,23.48
2022-07-29T01:15:53.740Z,23.49
2022-07-29T01:18:45.626Z,23.49
2022-07-29T01:21:34.934Z,23.46
2022-07-29T01:24:23.390Z,23.43
2022-07-29T01:27:18.722Z,23.37
2022-07-29T01:29:59.901Z,23.35
2022-07-29T01:32:36.850Z,23.34
2022-07-29T01:35:26.641Z,23.32
2022-07-29T01:37:57.357Z,23.28
2022-07-29T01:40:57.417Z,23.27
2022-07-29T01:44:02.556Z,23.25
2022-07-29T01:46:36.964Z,23.23
2022-07-29T01:49:12.415Z,23.25
2022-07-29T01:51:49.659Z,23.20
2022-07-29T01:54:22.470Z,23.22
2022-07-29T01:56:52.667Z,23.20
2022-07-29T01:59:21.624Z,23.17
2022-07-29T02:01:51.374Z,23.11
2022-07-29T02:04:26.662Z,23.11
2022-07-29T02:07:02.839Z,23.06
2022-07-29T02:09:33.011Z,22.84
2022-07-29T02:12:02.463Z,22.79
2022-07-29T02:14:34.757Z,22.79
2022-07-29T02:17:03.170Z,22.77
2022-07-29T02:19:33.276Z,22.78
2022-07-29T02:22:02.539Z,22.79
2022-07-29T02:24:32.749Z,22.80
2022-07-29T02:27:01.995Z,22.79
2022-07-29T02:29:32.162Z,22.78
2022-07-29T02:32:03.731Z,22.76
2022-07-29T02:34:32.078Z,22.74
2022-07-29T02:37:00.370Z,22.70
2022-07-29T02:39:30.636Z,22.69
2022-07-29T02:42:04.173Z,22.66
2022-07-29T02:44:34.935Z,22.61
2022-07-29T02:47:16.746Z,22.60
2022-07-29T02:49:56.987Z,22.52
2022-07-29T02:52:27.714Z,22.50
2022-07-29T02:55:01.190Z,22.46
2022-07-29T02:57:55.034Z,22.45
2022-07-29T03:00:29.706Z,22.39
2022-07-29T03:03:00.577Z,22.34
2022-07-29T03:05:28.845Z,22.30
2022-07-29T03:08:05.862Z,22.30
2022-07-29T03:10:34.281Z,22.25
2022-07-29T03:13:01.952Z,22.23
2022-07-29T03:15:30.114Z,22.21
2022-07-29T03:17:57.764Z,22.18
2022-07-29T03:20:25.585Z,22.18
2022-07-29T03:22:53.038Z,22.15
2022-07-29T03:25:21.534Z,22.11
2022-07-29T03:27:49.486Z,22.11
2022-07-29T03:30:18.348Z,22.04
2022-07-29T03:32:52.032Z,22.04
2022-07-29T03:35:22.474Z,22.01
2022-07-29T03:37:50.704Z,22.01
2022-07-29T03:40:47.654Z,21.99
2022-07-29T03:43:19.384Z,21.95
2022-07-29T03:45:50.926Z,21.98
2022-07-29T03:48:22.701Z,21.98
2022-07-29T03:50:51.788Z,21.97
2022-07-29T03:53:19.321Z,22.06
2022-07-29T03:55:49.994Z,22.10
2022-07-29T03:58:19.338Z,22.08
2022-07-29T04:00:47.344Z,22.08
2022-07-29T04:03:15.957Z,22.09
2022-07-29T04:05:43.290Z,22.11
2022-07-29T04:08:10.732Z,22.15
2022-07-29T04:10:39.626Z,22.19
2022-07-29T04:13:06.973Z,22.18
2022-07-29T04:15:34.772Z,22.22
2022-07-29T04:18:03.038Z,22.27
2022-07-29T04:20:30.099Z,22.31
2022-07-29T04:22:57.840Z,22.33
2022-07-29T04:25:25.295Z,22.36
2022-07-29T04:28:01.704Z,22.42
2022-07-29T04:30:31.662Z,22.49
2022-07-29T04:32:58.824Z,22.56
2022-07-29T04:35:26.317Z,22.63
2022-07-29T04:37:54.071Z,22.73
2022-07-29T04:40:21.583Z,22.84
2022-07-29T04:42:49.452Z,22.92
2022-07-29T04:45:22.311Z,23.02
2022-07-29T04:47:50.810Z,23.10
2022-07-29T04:50:18.251Z,23.17
2022-07-29T04:52:45.611Z,23.20
2022-07-29T04:55:12.969Z,23.25
2022-07-29T04:57:41.117Z,23.18
2022-07-29T05:00:09.301Z,23.14
2022-07-29T05:02:37.435Z,23.22
2022-07-29T05:05:05.503Z,23.28
2022-07-29T05:07:33.696Z,23.29
2022-07-29T05:10:00.671Z,23.35
2022-07-29T05:12:29.047Z,23.36
2022-07-29T05:14:56.268Z,23.38
2022-07-29T05:17:23.732Z,23.45
2022-07-29T05:19:53.008Z,23.53
2022-07-29T05:22:21.248Z,23.61
2022-07-29T05:24:48.242Z,23.73
2022-07-29T05:27:16.470Z,23.83
2022-07-29T05:29:45.752Z,23.88
2022-07-29T05:32:18.682Z,23.97
2022-07-29T05:34:50.313Z,24.02
2022-07-29T05:37:23.175Z,24.10
2022-07-29T05:39:56.381Z,24.16
2022-07-29T05:42:25.969Z,24.25
2022-07-29T05:44:55.103Z,24.32
2022-07-29T05:47:23.022Z,24.37
2022-07-29T05:49:50.343Z,24.42
2022-07-29T05:52:18.299Z,24.43
2022-07-29T05:54:45.820Z,24.42
2022-07-29T05:57:22.079Z,24.44
2022-07-29T05:59:50.794Z,24.48
2022-07-29T06:02:18.387Z,24.62
2022-07-29T06:04:46.136Z,24.56
2022-07-29T06:07:13.608Z,24.60
2022-07-29T06:09:40.905Z,24.66
2022-07-29T06:12:07.955Z,24.68
2022-07-29T06:14:37.091Z,24.81
2022-07-29T06:17:04.106Z,24.99
2022-07-29T06:19:31.538Z,25.17
2022-07-29T06:21:58.911Z,25.34
2022-07-29T06:24:26.125Z,25.44
2022-07-29T06:26:53.089Z,25.55
2022-07-29T06:29:20.944Z,25.67
2022-07-29T06:31:48.076Z,25.77
2022-07-29T06:34:15.663Z,25.83
2022-07-29T06:36:43.263Z,25.94
2022-07-29T06:39:11.745Z,26.06
2022-07-29T06:41:39.381Z,26.21
2022-07-29T06:44:10.763Z,26.28
2022-07-29T06:46:38.064Z,26.36
2022-07-29T06:49:05.962Z,26.46
2022-07-29T06:51:33.598Z,26.59
2022-07-29T06:54:03.370Z,26.69
2022-07-29T06:56:39.352Z,26.80
2022-07-29T06:59:11.957Z,26.86
2022-07-29T07:01:44.051Z,26.88
2022-07-29T07:04:12.574Z,26.93
2022-07-29T07:06:39.688Z,27.01
2022-07-29T07:09:07.505Z,27.07
2022-07-29T07:11:35.753Z,27.11
2022-07-29T07:14:04.238Z,27.15
2022-07-29T07:16:32.660Z,27.22
2022-07-29T07:19:00.700Z,27.27
2022-07-29T07:21:30.228Z,27.27
2022-07-29T07:23:58.531Z,27.38
2022-07-29T07:26:26.838Z,27.44
2022-07-29T07:28:54.582Z,27.59
2022-07-29T07:31:21.706Z,27.62
2022-07-29T07:33:49.615Z,27.63
2022-07-29T07:36:16.805Z,27.70
2022-07-29T07:38:44.184Z,27.83
2022-07-29T07:41:11.039Z,27.92
2022-07-29T07:43:38.693Z,27.99
2022-07-29T07:46:05.969Z,27.98
2022-07-29T07:48:35.850Z,28.01
2022-07-29T07:51:03.488Z,28.14
2022-07-29T07:53:31.542Z,28.24
2022-07-29T07:56:10.534Z,28.37
2022-07-29T07:58:40.078Z,28.36
2022-07-29T08:01:07.463Z,28.37
2022-07-29T08:03:37.507Z,28.49
2022-07-29T08:06:04.998Z,28.58
2022-07-29T08:08:32.371Z,28.64
2022-07-29T08:11:04.311Z,28.85
2022-07-29T08:13:35.533Z,28.95
2022-07-29T08:16:03.034Z,28.97
2022-07-29T08:18:32.030Z,29.05
2022-07-29T08:20:59.616Z,29.02
2022-07-29T08:23:45.540Z,29.07
2022-07-29T08:26:16.498Z,28.96
2022-07-29T08:28:50.704Z,29.08
2022-07-29T08:31:18.371Z,29.14
2022-07-29T08:33:45.352Z,29.17
2022-07-29T08:36:14.349Z,29.21
2022-07-29T08:38:41.293Z,29.32
2022-07-29T08:41:08.469Z,29.33
2022-07-29T08:43:38.650Z,29.47
2022-07-29T08:46:06.349Z,29.65
2022-07-29T08:48:34.204Z,29.70
2022-07-29T08:51:04.414Z,29.84
2022-07-29T08:53:31.851Z,29.95
2022-07-29T08:56:01.336Z,30.05
2022-07-29T08:58:32.373Z,30.10
2022-07-29T09:01:07.543Z,30.23
2022-07-29T09:03:40.103Z,30.21
2022-07-29T09:06:07.874Z,30.30
2022-07-29T09:08:36.117Z,30.40
2022-07-29T09:11:05.330Z,30.34
2022-07-29T09:13:35.511Z,30.35
2022-07-29T09:16:09.065Z,30.40
2022-07-29T09:18:43.824Z,30.41
2022-07-29T09:21:33.147Z,30.46
2022-07-29T09:24:12.366Z,30.55
2022-07-29T09:26:46.935Z,30.68
2022-07-29T09:29:16.243Z,30.80
2022-07-29T09:31:46.137Z,30.64
2022-07-29T09:34:15.588Z,30.65
2022-07-29T09:36:45.192Z,30.80
2022-07-29T09:39:13.897Z,30.84
2022-07-29T09:41:56.140Z,30.95
2022-07-29T09:44:24.453Z,31.01
2022-07-29T09:47:09.470Z,31.06
2022-07-29T09:49:53.718Z,31.13
2022-07-29T09:52:21.473Z,31.20
2022-07-29T09:54:48.915Z,31.29
2022-07-29T09:57:31.360Z,31.41
2022-07-29T10:00:19.525Z,31.48
2022-07-29T10:02:48.705Z,31.51
2022-07-29T10:05:24.890Z,31.62
2022-07-29T10:07:57.437Z,31.57
2022-07-29T10:10:29.132Z,31.45
2022-07-29T10:13:01.778Z,31.60
2022-07-29T10:15:42.076Z,31.74
2022-07-29T10:18:10.003Z,31.78
2022-07-29T10:20:37.649Z,31.87
2022-07-29T10:23:06.027Z,31.96
2022-07-29T10:25:33.232Z,32.01
2022-07-29T10:28:00.603Z,32.04
2022-07-29T10:30:28.602Z,32.12
2022-07-29T10:33:33.563Z,32.06
2022-07-29T10:36:12.316Z,32.14
2022-07-29T10:38:46.005Z,32.20
2022-07-29T10:41:32.126Z,32.28
2022-07-29T10:44:19.385Z,32.37
2022-07-29T10:46:52.584Z,32.45
2022-07-29T10:49:25.792Z,32.54
2022-07-29T10:51:58.229Z,32.66
2022-07-29T10:54:39.655Z,32.77
2022-07-29T10:57:54.448Z,32.93
2022-07-29T11:00:18.682Z,33.08
2022-07-29T11:02:50.255Z,33.11
2022-07-29T11:05:20.477Z,33.29
2022-07-29T11:08:16.204Z,33.47
2022-07-29T11:10:49.948Z,33.61
2022-07-29T11:13:46.471Z,33.80
2022-07-29T11:16:16.183Z,33.89
2022-07-29T11:19:13.381Z,34.16
2022-07-29T11:21:54.070Z,34.22
2022-07-29T11:24:32.460Z,34.15
2022-07-29T11:27:11.009Z,34.38
2022-07-29T11:30:01.247Z,34.47
2022-07-29T11:32:39.086Z,34.81
2022-07-29T11:35:38.452Z,35.24
2022-07-29T11:38:28.636Z,35.73
2022-07-29T11:41:22.298Z,35.94
2022-07-29T11:43:56.064Z,36.11
2022-07-29T11:46:48.376Z,36.36
2022-07-29T11:49:32.365Z,36.61
2022-07-29T11:52:04.944Z,36.92
2022-07-29T11:54:57.537Z,37.28
2022-07-29T11:57:36.057Z,37.59
2022-07-29T12:00:12.201Z,37.88
2022-07-29T12:02:48.126Z,38.22
2022-07-29T12:05:22.163Z,38.50
2022-07-29T12:08:17.437Z,38.57
2022-07-29T12:10:44.638Z,38.77
2022-07-29T12:13:12.548Z,38.79
2022-07-29T12:15:45.860Z,38.90
2022-07-29T12:18:19.125Z,38.98
2022-07-29T12:20:49.101Z,39.22
2022-07-29T12:23:17.457Z,39.21
2022-07-29T12:25:50.021Z,39.42
2022-07-29T12:28:26.982Z,39.46
2022-07-29T12:30:55.822Z,39.59
2022-07-29T12:33:24.671Z,39.78
2022-07-29T12:36:06.079Z,39.89
2022-07-29T12:38:35.918Z,40.17
2022-07-29T12:41:06.450Z,40.40
2022-07-29T12:43:33.835Z,40.48
2022-07-29T12:46:15.126Z,40.75
2022-07-29T12:48:44.944Z,40.95
2022-07-29T12:54:51.558Z,41.50
2022-07-29T12:57:20.507Z,41.48
2022-07-29T13:00:05.141Z,41.32
2022-07-29T13:02:33.043Z,41.57
2022-07-29T13:05:02.040Z,41.78
2022-07-29T13:07:54.418Z,42.03
2022-07-29T13:10:23.956Z,42.29
2022-07-29T13:13:15.836Z,42.62
2022-07-29T13:15:48.131Z,42.87
2022-07-29T13:18:33.100Z,42.98
2022-07-29T13:21:15.345Z,43.14
2022-07-29T13:23:43.744Z,43.33
2022-07-29T13:26:12.871Z,43.45
2022-07-29T13:28:41.035Z,43.59
2022-07-29T13:31:11.994Z,43.78
2022-07-29T13:33:39.041Z,43.96
2022-07-29T13:36:06.624Z,44.27
2022-07-29T13:38:34.192Z,44.46
2022-07-29T13:41:03.196Z,44.62
2022-07-29T13:43:30.350Z,44.78
2022-07-29T13:45:58.976Z,44.86
2022-07-29T13:48:25.993Z,45.06
2022-07-29T13:50:53.683Z,45.35
2022-07-29T13:53:26.995Z,45.52
2022-07-29T13:55:54.986Z,45.67
2022-07-29T13:58:22.775Z,45.76
2022-07-29T14:00:50.125Z,45.90
2022-07-29T14:03:17.145Z,46.00
2022-07-29T14:05:44.656Z,46.13
2022-07-29T14:08:11.739Z,46.27
2022-07-29T14:10:39.161Z,46.36
2022-07-29T14:13:06.399Z,46.40
2022-07-29T14:15:52.321Z,46.16
2022-07-29T14:18:19.729Z,46.19
2022-07-29T14:20:47.397Z,46.31
2022-07-29T14:23:14.506Z,46.38
2022-07-29T14:25:44.492Z,46.28
2022-07-29T14:28:11.676Z,46.32
2022-07-29T14:30:43.575Z,46.41
2022-07-29T14:33:11.747Z,46.47
2022-07-29T14:35:39.241Z,46.59
2022-07-29T14:38:06.343Z,46.85
2022-07-29T14:40:34.421Z,47.10
2022-07-29T14:43:01.455Z,47.30
2022-07-29T14:45:29.357Z,47.42
2022-07-29T14:47:58.302Z,47.65
2022-07-29T14:50:31.413Z,47.64
2022-07-29T14:53:01.513Z,47.84
2022-07-29T14:55:28.561Z,46.79
2022-07-29T14:58:07.741Z,46.54
2022-07-29T15:00:38.955Z,46.07
2022-07-29T15:03:06.608Z,46.14
2022-07-29T15:05:40.695Z,46.51
2022-07-29T15:08:09.242Z,46.77
2022-07-29T15:10:37.154Z,46.38
2022-07-29T15:13:04.154Z,46.44
2022-07-29T15:15:31.419Z,46.91
2022-07-29T15:17:58.617Z,46.86
2022-07-29T15:20:28.130Z,46.59
2022-07-29T15:22:59.223Z,46.49
2022-07-29T15:25:28.564Z,46.42
2022-07-29T15:28:00.984Z,46.74
2022-07-29T15:30:32.748Z,46.01
2022-07-29T15:33:02.533Z,46.07
2022-07-29T15:35:29.819Z,46.41
2022-07-29T15:37:57.218Z,46.88
2022-07-29T15:40:24.438Z,46.69
2022-07-29T15:42:52.344Z,46.03
2022-07-29T15:45:19.353Z,45.31
2022-07-29T15:47:47.533Z,44.98
2022-07-29T15:50:17.609Z,44.81
2022-07-29T15:52:44.972Z,44.78
2022-07-29T15:55:12.976Z,44.75
2022-07-29T15:57:40.988Z,45.38
2022-07-29T16:00:09.533Z,46.25
2022-07-29T16:02:36.810Z,46.87
2022-07-29T16:05:04.130Z,47.45
2022-07-29T16:07:38.988Z,46.84
2022-07-29T16:10:08.007Z,46.87
2022-07-29T16:12:36.141Z,45.78
2022-07-29T16:15:07.719Z,45.90
2022-07-29T16:17:38.124Z,46.06
2022-07-29T16:20:07.284Z,46.64
2022-07-29T16:22:34.611Z,46.99
2022-07-29T16:25:01.569Z,46.86
2022-07-29T16:27:35.641Z,46.60
2022-07-29T16:30:08.587Z,46.47
2022-07-29T16:32:36.275Z,46.69
2022-07-29T16:35:05.441Z,46.15
2022-07-29T16:37:37.510Z,46.39
2022-07-29T16:40:06.409Z,46.24
2022-07-29T16:42:46.674Z,46.41
2022-07-29T16:45:17.431Z,46.28
2022-07-29T16:47:47.136Z,46.21
2022-07-29T16:50:14.480Z,46.27
2022-07-29T16:52:42.212Z,46.34
2022-07-29T16:55:09.325Z,46.25
2022-07-29T16:57:36.862Z,44.77
2022-07-29T17:00:05.603Z,43.71
2022-07-29T17:02:33.052Z,43.12
2022-07-29T17:04:59.995Z,42.55
2022-07-29T17:07:31.816Z,42.03
2022-07-29T17:10:03.607Z,41.73
2022-07-29T17:12:33.241Z,41.39
2022-07-29T17:15:00.724Z,41.40
2022-07-29T17:17:38.768Z,41.22
2022-07-29T17:20:17.614Z,40.71
2022-07-29T17:22:44.791Z,40.53
2022-07-29T17:25:20.664Z,40.28
2022-07-29T17:27:51.242Z,40.20
2022-07-29T17:30:19.014Z,40.05
2022-07-29T17:32:46.313Z,39.62
2022-07-29T17:35:32.292Z,39.09
2022-07-29T17:37:59.553Z,38.39
2022-07-29T17:40:26.686Z,37.99
2022-07-29T17:42:54.658Z,37.46
2022-07-29T17:45:21.873Z,37.04
2022-07-29T17:47:49.630Z,36.57
2022-07-29T17:50:16.829Z,36.15
2022-07-29T17:52:44.160Z,35.82
2022-07-29T17:55:13.362Z,35.47
2022-07-29T17:57:40.846Z,34.95
2022-07-29T18:00:09.302Z,34.46
2022-07-29T18:02:37.783Z,34.16
2022-07-29T18:05:05.714Z,33.75
2022-07-29T18:07:33.196Z,33.53
2022-07-29T18:10:00.844Z,33.15
2022-07-29T18:12:28.966Z,32.89
2022-07-29T18:14:55.953Z,32.58
2022-07-29T18:17:23.255Z,32.28
2022-07-29T18:20:11.460Z,32.06
2022-07-29T18:22:38.491Z,31.93
2022-07-29T18:25:06.804Z,31.80
2022-07-29T18:27:34.162Z,31.59
2022-07-29T18:30:04.844Z,31.39
2022-07-29T18:32:32.417Z,31.34
2022-07-29T18:35:03.058Z,31.07
2022-07-29T18:38:00.276Z,30.90
2022-07-29T18:40:21.526Z,30.70
2022-07-29T18:42:48.478Z,30.65
2022-07-29T18:45:19.062Z,30.45
2022-07-29T18:47:49.439Z,30.22
2022-07-29T18:50:16.938Z,30.00
2022-07-29T18:52:46.442Z,29.94
2022-07-29T18:55:14.894Z,29.87
2022-07-29T18:57:55.988Z,29.69
2022-07-29T19:00:25.306Z,29.55
2022-07-29T19:02:53.197Z,29.47
2022-07-29T19:05:21.131Z,29.39
2022-07-29T19:07:48.192Z,29.29
2022-07-29T19:10:16.204Z,29.25
2022-07-29T19:12:43.167Z,29.20
2022-07-29T19:15:11.024Z,29.16
2022-07-29T19:17:39.098Z,29.08
2022-07-29T19:20:07.965Z,29.05
2022-07-29T19:22:35.160Z,28.96
2022-07-29T19:25:02.877Z,28.91
2022-07-29T19:27:29.891Z,28.85
2022-07-29T19:29:59.374Z,28.73
2022-07-29T19:32:27.707Z,28.68
2022-07-29T19:35:13.737Z,28.62
2022-07-29T19:37:41.395Z,28.51
2022-07-29T19:40:10.093Z,28.45
2022-07-29T19:42:37.407Z,28.37
2022-07-29T19:45:05.031Z,28.29
2022-07-29T19:47:32.314Z,28.22
2022-07-29T19:50:00.641Z,28.18
2022-07-29T19:52:30.539Z,28.12
2022-07-29T19:54:57.625Z,28.09
2022-07-29T19:57:25.623Z,28.02
2022-07-29T19:59:54.192Z,27.97
2022-07-29T20:02:21.514Z,27.98
2022-07-29T20:04:51.469Z,27.98
2022-07-29T20:07:19.607Z,27.95
2022-07-29T20:09:47.071Z,27.95
2022-07-29T20:12:14.328Z,27.88
2022-07-29T20:14:41.945Z,27.88
2022-07-29T20:17:09.262Z,27.82
2022-07-29T20:19:36.277Z,27.80
2022-07-29T20:22:04.850Z,27.76
2022-07-29T20:24:31.952Z,27.66
2022-07-29T20:26:59.637Z,27.59
2022-07-29T20:29:27.642Z,27.44
2022-07-29T20:31:56.573Z,27.36
2022-07-29T20:34:23.983Z,27.28
2022-07-29T20:36:51.727Z,27.17
2022-07-29T20:39:21.089Z,27.11
2022-07-29T20:41:49.592Z,27.08
2022-07-29T20:44:19.947Z,27.05
2022-07-29T20:46:48.974Z,27.04
2022-07-29T20:49:16.243Z,27.01
2022-07-29T20:51:44.273Z,26.96
2022-07-29T20:54:11.975Z,26.95
2022-07-29T20:56:39.577Z,26.91
2022-07-29T20:59:06.865Z,26.92
2022-07-29T21:01:34.435Z,26.94
2022-07-29T21:04:02.929Z,26.92
2022-07-29T21:06:31.037Z,26.96
2022-07-29T21:08:59.773Z,27.01
2022-07-29T21:11:44.068Z,27.13
2022-07-29T21:14:29.930Z,27.20
2022-07-29T21:16:57.455Z,27.21
2022-07-29T21:19:24.600Z,27.23
2022-07-29T21:21:52.365Z,27.19
2022-07-29T21:24:19.384Z,27.19
2022-07-29T21:26:54.483Z,27.16
2022-07-29T21:29:27.905Z,27.17
2022-07-29T21:31:54.927Z,27.22
2022-07-29T21:34:24.657Z,27.23
2022-07-29T21:36:51.902Z,27.23
2022-07-29T21:39:20.252Z,27.21
2022-07-29T21:41:47.344Z,27.21
2022-07-29T21:44:15.100Z,27.20
2022-07-29T21:46:42.125Z,27.02
2022-07-29T21:49:09.431Z,26.88
2022-07-29T21:51:36.710Z,26.67
2022-07-29T21:54:04.565Z,26.62
2022-07-29T21:56:31.642Z,26.59
2022-07-29T21:58:59.125Z,26.62
2022-07-29T22:01:26.370Z,26.63
2022-07-29T22:03:54.040Z,26.67
2022-07-29T22:06:21.559Z,26.74
2022-07-29T22:08:48.919Z,26.73
2022-07-29T22:11:16.192Z,26.74
2022-07-29T22:13:43.478Z,26.73
2022-07-29T22:16:15.107Z,26.71
2022-07-29T22:18:45.757Z,26.63
2022-07-29T22:21:14.934Z,26.66
2022-07-29T22:23:41.926Z,26.68
2022-07-29T22:26:09.672Z,26.65
2022-07-29T22:28:36.698Z,26.62
2022-07-29T22:31:05.109Z,26.58
2022-07-29T22:33:32.920Z,26.55
2022-07-29T22:36:00.346Z,26.51
2022-07-29T22:38:27.403Z,26.37
2022-07-29T22:41:00.689Z,26.29
2022-07-29T22:43:29.004Z,26.24
2022-07-29T22:45:56.353Z,26.24
2022-07-29T22:48:23.988Z,26.23
2022-07-29T22:50:51.007Z,26.22
2022-07-29T22:53:18.623Z,26.23
2022-07-29T22:55:45.840Z,26.23
2022-07-29T22:58:13.299Z,26.22
2022-07-29T23:00:41.341Z,26.17
2022-07-29T23:03:08.645Z,26.02
2022-07-29T23:05:35.813Z,25.97
2022-07-29T23:08:03.884Z,25.90
2022-07-29T23:10:31.164Z,25.89
2022-07-29T23:12:58.502Z,25.90
2022-07-29T23:15:26.345Z,25.92
2022-07-29T23:17:54.300Z,25.89
2022-07-29T23:20:23.795Z,25.82
2022-07-29T23:22:51.614Z,25.77
2022-07-29T23:25:19.104Z,25.68
2022-07-29T23:27:46.268Z,25.67
2022-07-29T23:30:15.329Z,25.71
2022-07-29T23:32:42.385Z,25.74
2022-07-29T23:35:10.293Z,25.80
2022-07-29T23:37:38.540Z,25.83
2022-07-29T23:40:08.720Z,25.85
2022-07-29T23:42:40.052Z,25.84
2022-07-29T23:45:07.572Z,25.78
2022-07-29T23:47:34.955Z,25.76
2022-07-29T23:50:02.209Z,25.63
2022-07-29T23:52:29.649Z,25.58
2022-07-29T23:55:37.809Z,25.50
2022-07-29T23:57:45.508Z,25.39
